createdAt,value
2022-10-05T00:01:46.701Z,94.43
2022-10-05T00:06:57.557Z,94.81
2022-10-05T00:12:13.123Z,94.69
2022-10-05T00:17:17.891Z,94.95
2022-10-05T00:22:22.074Z,95.27
2022-10-05T00:27:27.381Z,96.16
2022-10-05T00:32:29.414Z,95.51
2022-10-05T00:37:31.076Z,95.98
2022-10-05T00:42:44.920Z,96.20
2022-10-05T00:47:57.717Z,95.79
2022-10-05T00:53:10.477Z,96.24
2022-10-05T00:58:26.476Z,96.32
2022-10-05T01:03:37.615Z,96.89
2022-10-05T01:08:46.605Z,96.70
2022-10-05T01:13:59.720Z,96.70
2022-10-05T01:19:11.849Z,96.84
2022-10-05T01:24:40.229Z,97.08
2022-10-05T01:29:49.725Z,97.51
2022-10-05T01:34:59.869Z,97.17
2022-10-05T01:40:07.887Z,97.05
2022-10-05T01:45:18.789Z,96.88
2022-10-05T01:50:32.782Z,97.28
2022-10-05T01:55:42.336Z,96.92
2022-10-05T02:00:55.867Z,96.79
2022-10-05T02:06:00.683Z,96.88
2022-10-05T02:11:07.432Z,97.21
2022-10-05T02:16:16.424Z,97.33
2022-10-05T02:21:20.249Z,97.43
2022-10-05T02:26:24.301Z,97.23
2022-10-05T02:31:35.314Z,97.38
2022-10-05T02:36:38.136Z,97.47
2022-10-05T02:41:49.098Z,97.73
2022-10-05T02:46:59.934Z,98.14
2022-10-05T02:52:08.858Z,98.28
2022-10-05T02:57:16.509Z,97.85
2022-10-05T03:02:25.049Z,98.14
2022-10-05T03:07:33.895Z,98.02
2022-10-05T03:12:44.539Z,98.27
2022-10-05T03:17:52.294Z,98.76
2022-10-05T03:22:58.190Z,98.57
2022-10-05T03:28:07.527Z,98.40
2022-10-05T03:33:21.245Z,98.70
2022-10-05T03:38:34.364Z,98.27
2022-10-05T03:44:02.119Z,98.17
2022-10-05T03:49:14.464Z,98.51
2022-10-05T03:54:22.980Z,98.50
2022-10-05T03:59:32.644Z,99.22
2022-10-05T04:04:51.298Z,99.00
2022-10-05T04:09:56.299Z,99.47
2022-10-05T04:15:03.178Z,99.66
2022-10-05T04:20:18.209Z,99.34
2022-10-05T04:25:25.203Z,99.30
2022-10-05T04:30:26.962Z,99.30
2022-10-05T04:35:41.472Z,98.78
2022-10-05T04:40:58.707Z,99.12
2022-10-05T04:46:13.856Z,99.49
2022-10-05T04:51:35.792Z,98.73
2022-10-05T04:56:42.250Z,99.06
2022-10-05T05:02:03.701Z,98.75
2022-10-05T05:07:19.255Z,98.51
2022-10-05T05:12:35.171Z,98.61
2022-10-05T05:17:56.856Z,98.54
2022-10-05T05:23:09.033Z,98.55
2022-10-05T05:28:19.433Z,98.57
2022-10-05T05:33:23.182Z,98.57
2022-10-05T05:38:32.891Z,98.46
2022-10-05T05:43:58.827Z,98.09
2022-10-05T05:49:07.484Z,98.15
2022-10-05T05:54:29.972Z,97.55
2022-10-05T05:59:43.182Z,96.91
2022-10-05T06:04:49.780Z,96.39
2022-10-05T06:09:58.388Z,95.65
2022-10-05T06:15:05.358Z,94.88
2022-10-05T06:20:16.574Z,94.03
2022-10-05T06:25:31.047Z,92.86
2022-10-05T06:30:46.133Z,91.95
2022-10-05T06:36:04.504Z,90.27
2022-10-05T06:41:16.191Z,89.62
2022-10-05T06:46:23.562Z,88.65
2022-10-05T06:51:35.106Z,87.94
2022-10-05T06:56:45.512Z,87.85
2022-10-05T07:01:59.291Z,87.25
2022-10-05T07:07:07.452Z,86.57
2022-10-05T07:12:33.399Z,85.79
2022-10-05T07:17:49.463Z,84.24
2022-10-05T07:23:10.026Z,83.58
2022-10-05T07:28:19.456Z,83.45
2022-10-05T07:33:27.165Z,83.46
2022-10-05T07:38:35.501Z,82.75
2022-10-05T07:44:02.445Z,81.37
2022-10-05T07:49:13.302Z,80.70
2022-10-05T07:54:21.660Z,79.32
2022-10-05T07:59:34.692Z,78.39
2022-10-05T08:04:45.064Z,77.40
2022-10-05T08:09:54.326Z,76.19
2022-10-05T08:15:00.727Z,76.39
2022-10-05T08:20:16.058Z,76.24
2022-10-05T08:25:24.806Z,74.98
2022-10-05T08:30:30.738Z,73.06
2022-10-05T08:35:38.186Z,71.50
2022-10-05T08:41:11.744Z,69.86
2022-10-05T08:46:29.511Z,67.45
2022-10-05T08:51:57.162Z,66.58
2022-10-05T08:57:32.073Z,66.67
2022-10-05T09:02:57.593Z,64.62
2022-10-05T09:08:30.418Z,65.60
2022-10-05T09:13:49.735Z,66.99
2022-10-05T09:19:12.144Z,65.21
2022-10-05T09:24:27.421Z,66.01
2022-10-05T09:30:06.065Z,64.53
2022-10-05T09:35:27.454Z,65.99
2022-10-05T09:41:00.548Z,65.73
2022-10-05T09:46:28.338Z,56.68
2022-10-05T09:52:02.381Z,50.29
2022-10-05T09:57:42.413Z,43.63
2022-10-05T10:03:07.246Z,50.69
2022-10-05T10:08:25.442Z,58.89
2022-10-05T10:14:08.854Z,61.52
2022-10-05T10:19:30.744Z,61.01
2022-10-05T10:24:50.971Z,63.18
2022-10-05T10:30:14.185Z,63.85
2022-10-05T10:41:04.259Z,62.89
2022-10-05T10:46:19.029Z,59.04
2022-10-05T10:51:46.806Z,54.17
2022-10-05T10:56:56.102Z,49.59
2022-10-05T11:02:25.162Z,46.60
2022-10-05T11:07:49.965Z,54.09
2022-10-05T11:13:24.379Z,54.44
2022-10-05T11:18:40.698Z,54.18
2022-10-05T11:24:08.338Z,55.09
2022-10-05T11:29:47.663Z,57.08
2022-10-05T11:35:20.766Z,55.51
2022-10-05T11:40:47.498Z,53.47
2022-10-05T11:46:04.782Z,56.02
2022-10-05T11:51:30.385Z,57.11
2022-10-05T11:56:37.081Z,56.95
2022-10-05T12:01:49.429Z,58.14
2022-10-05T12:07:06.920Z,58.34
2022-10-05T12:12:17.461Z,56.61
2022-10-05T12:17:29.368Z,54.72
2022-10-05T12:22:37.625Z,53.74
2022-10-05T12:27:42.731Z,52.71
2022-10-05T12:33:00.882Z,52.36
2022-10-05T12:38:07.686Z,52.60
2022-10-05T12:43:20.101Z,53.39
2022-10-05T12:48:40.841Z,53.59
2022-10-05T12:53:51.830Z,53.39
2022-10-05T12:59:01.384Z,52.70
2022-10-05T13:04:17.249Z,52.55
2022-10-05T13:09:28.219Z,52.05
2022-10-05T13:14:48.850Z,51.61
2022-10-05T13:19:57.027Z,52.02
2022-10-05T13:25:09.916Z,50.57
2022-10-05T13:30:15.359Z,53.41
2022-10-05T13:35:37.821Z,53.42
2022-10-05T13:40:46.116Z,53.78
2022-10-05T13:45:55.671Z,54.81
2022-10-05T13:51:07.645Z,54.38
2022-10-05T13:56:20.229Z,55.48
2022-10-05T14:01:31.769Z,55.05
2022-10-05T14:06:37.124Z,54.67
2022-10-05T14:11:48.356Z,54.55
2022-10-05T14:16:53.171Z,54.19
2022-10-05T14:22:01.638Z,52.87
2022-10-05T14:27:20.216Z,53.36
2022-10-05T14:32:24.992Z,52.84
2022-10-05T14:37:44.779Z,53.33
2022-10-05T14:42:47.529Z,53.82
2022-10-05T14:47:51.621Z,53.59
2022-10-05T14:53:17.240Z,54.52
2022-10-05T14:58:31.167Z,55.38
2022-10-05T15:03:45.784Z,56.58
2022-10-05T15:09:12.388Z,56.05
2022-10-05T15:14:22.161Z,56.90
2022-10-05T15:19:28.575Z,56.99
2022-10-05T15:24:43.506Z,57.45
2022-10-05T15:29:58.451Z,57.43
2022-10-05T15:35:24.528Z,57.71
2022-10-05T15:40:36.604Z,58.00
2022-10-05T15:45:43.890Z,58.62
2022-10-05T15:50:53.129Z,59.91
2022-10-05T15:55:59.973Z,60.29
2022-10-05T16:01:07.630Z,60.27
2022-10-05T16:06:19.374Z,60.89
2022-10-05T16:11:53.468Z,61.71
2022-10-05T16:17:11.811Z,63.36
2022-10-05T16:22:21.882Z,63.44
2022-10-05T16:27:35.683Z,64.93
2022-10-05T16:32:43.028Z,65.23
2022-10-05T16:37:55.271Z,67.47
2022-10-05T16:43:08.435Z,69.99
2022-10-05T16:48:16.732Z,71.46
2022-10-05T16:53:24.594Z,73.73
2022-10-05T16:58:38.600Z,74.67
2022-10-05T17:03:58.228Z,75.28
2022-10-05T17:09:26.480Z,76.87
2022-10-05T17:14:42.593Z,77.87
2022-10-05T17:19:57.806Z,79.30
2022-10-05T17:25:11.545Z,80.39
2022-10-05T17:30:47.295Z,81.77
2022-10-05T17:35:53.263Z,81.77
2022-10-05T17:41:03.877Z,80.06
2022-10-05T17:46:09.330Z,79.22
2022-10-05T17:51:17.460Z,78.83
2022-10-05T17:56:20.417Z,79.51
2022-10-05T18:01:31.024Z,78.86
2022-10-05T18:06:35.471Z,78.54
2022-10-05T18:11:41.015Z,78.66
2022-10-05T18:17:02.688Z,79.05
2022-10-05T18:22:27.003Z,78.55
2022-10-05T18:27:51.744Z,78.89
2022-10-05T18:33:33.499Z,78.90
2022-10-05T18:38:47.366Z,79.58
2022-10-05T18:43:59.527Z,80.46
2022-10-05T18:49:15.061Z,80.53
2022-10-05T18:54:39.044Z,80.92
2022-10-05T18:59:48.430Z,80.36
2022-10-05T19:05:03.357Z,80.87
2022-10-05T19:10:17.254Z,81.28
2022-10-05T19:15:26.507Z,81.81
2022-10-05T19:20:35.332Z,81.95
2022-10-05T19:25:42.009Z,82.06
2022-10-05T19:31:00.676Z,81.61
2022-10-05T19:36:16.836Z,81.19
2022-10-05T19:41:26.794Z,80.19
2022-10-05T19:46:41.892Z,79.47
2022-10-05T19:51:50.116Z,79.05
2022-10-05T19:56:53.820Z,78.57
2022-10-05T20:01:57.607Z,78.85
2022-10-05T20:07:00.863Z,78.71
2022-10-05T20:12:02.599Z,78.55
2022-10-05T20:17:26.005Z,78.41
2022-10-05T20:22:32.096Z,78.07
2022-10-05T20:27:44.206Z,78.31
2022-10-05T20:32:48.184Z,78.92
2022-10-05T20:37:51.478Z,79.68
2022-10-05T20:42:53.128Z,79.88
2022-10-05T20:47:55.368Z,80.18
2022-10-05T20:52:58.588Z,79.56
2022-10-05T20:58:00.896Z,79.54
2022-10-05T21:03:02.474Z,79.75
2022-10-05T21:08:05.479Z,80.03
2022-10-05T21:13:07.097Z,79.80
2022-10-05T21:18:09.207Z,79.34
2022-10-05T21:23:12.524Z,79.57
2022-10-05T21:28:14.657Z,79.47
2022-10-05T21:33:16.555Z,79.08
2022-10-05T21:38:19.932Z,78.99
2022-10-05T21:43:22.104Z,78.51
2022-10-05T21:48:26.298Z,78.73
2022-10-05T21:53:33.008Z,78.97
2022-10-05T21:58:35.461Z,79.67
2022-10-05T22:03:37.546Z,80.44
2022-10-05T22:08:41.059Z,80.93
2022-10-05T22:13:44.919Z,81.33
2022-10-05T22:18:47.621Z,82.05
2022-10-05T22:23:51.017Z,82.45
2022-10-05T22:28:53.281Z,83.61
2022-10-05T22:33:55.387Z,84.21
2022-10-05T22:38:58.910Z,84.47
2022-10-05T22:44:00.933Z,84.68
2022-10-05T22:49:03.118Z,84.75
2022-10-05T22:54:06.767Z,85.18
2022-10-05T22:59:09.089Z,85.13
2022-10-05T23:04:11.112Z,85.77
2022-10-05T23:09:14.705Z,85.99
2022-10-05T23:14:16.792Z,85.91
2022-10-05T23:19:18.937Z,85.62
2022-10-05T23:24:22.472Z,85.37
2022-10-05T23:29:24.105Z,86.04
2022-10-05T23:34:26.141Z,85.93
2022-10-05T23:39:29.763Z,86.45
2022-10-05T23:44:31.881Z,86.84
2022-10-05T23:49:34.144Z,86.55
2022-10-05T23:54:37.509Z,86.34
2022-10-05T23:59:39.580Z,86.45
